Time;durP1;ratioP1;P1;durP2;ratioP2;P2;SDS_P1;SDS_P2;PMS_P1;PMS_P2;Temp;Humidity;BMP_temperature;BMP_pressure;BME280_temperature;BME280_humidity;BME280_pressure;Samples;Min_cycle;Max_cycle;Signal;HPM_P1;HPM_P2
2022/07/20 00:00:12;;;;;;;7.18;1.80;;;;;;;22.12;56.50;100490.38;5076449;28;20053;-70
2022/07/20 00:02:37;;;;;;;10.82;2.58;;;;;;;22.08;57.01;100500.75;5074922;28;20115;-70
2022/07/20 00:05:03;;;;;;;8.65;2.13;;;;;;;22.03;56.52;100504.69;5058460;28;20029;-70
2022/07/20 00:07:29;;;;;;;5.47;1.90;;;;;;;22.00;57.68;100504.63;5038197;28;20029;-70
2022/07/20 00:12:38;;;;;;;5.78;2.10;;;;;;;21.93;57.32;100499.66;5072184;28;20032;-70
2022/07/20 00:15:04;;;;;;;5.45;1.85;;;;;;;21.89;57.31;100493.09;5024123;28;20029;-70
2022/07/20 00:17:30;;;;;;;7.57;1.83;;;;;;;21.88;57.47;100494.28;5058175;28;20119;-70
2022/07/20 00:19:55;;;;;;;6.93;2.05;;;;;;;21.88;57.80;100491.47;5076180;28;20105;-70
2022/07/20 00:22:20;;;;;;;7.15;2.13;;;;;;;21.85;57.84;100500.69;5108081;28;20020;-70
2022/07/20 00:24:46;;;;;;;6.03;2.30;;;;;;;21.77;59.51;100502.53;5058015;28;20060;-70
2022/07/20 00:27:11;;;;;;;8.73;2.30;;;;;;;21.78;59.13;100492.88;5074993;28;20039;-70
2022/07/20 00:29:37;;;;;;;5.40;1.80;;;;;;;21.77;58.77;100507.38;5051065;28;20439;-70
2022/07/20 00:32:03;;;;;;;6.78;2.25;;;;;;;21.73;58.69;100507.31;5041542;28;20070;-70
2022/07/20 00:34:28;;;;;;;8.27;2.55;;;;;;;21.73;58.90;100501.66;5058111;28;20032;-70
2022/07/20 00:36:54;;;;;;;7.95;2.63;;;;;;;21.73;60.39;100503.63;5072979;28;20029;-70
2022/07/20 00:39:19;;;;;;;8.27;2.38;;;;;;;21.71;59.59;100497.56;5057890;28;20029;-70
2022/07/20 00:41:45;;;;;;;7.45;1.95;;;;;;;21.68;59.17;100498.31;5091705;28;20028;-70
2022/07/20 00:44:10;;;;;;;6.70;2.15;;;;;;;21.68;59.70;100495.47;5058041;28;20043;-70
2022/07/20 00:46:37;;;;;;;5.75;2.20;;;;;;;21.69;59.56;100497.09;5058180;28;20025;-70
2022/07/20 00:49:04;;;;;;;9.13;2.65;;;;;;;21.68;59.55;100492.66;5041424;28;20481;-70
2022/07/20 00:51:29;;;;;;;7.15;2.42;;;;;;;21.66;59.69;100495.84;5075885;28;20104;-70
2022/07/20 00:53:55;;;;;;;6.68;2.70;;;;;;;21.65;61.00;100497.03;5074966;28;20073;-70
2022/07/20 00:56:21;;;;;;;6.82;2.05;;;;;;;21.64;60.76;100513.16;5080148;28;20028;-70
2022/07/20 00:58:46;;;;;;;8.43;2.30;;;;;;;21.64;60.69;100495.38;5044393;28;20079;-70
2022/07/20 01:01:12;;;;;;;10.07;2.72;;;;;;;21.64;62.27;100503.84;5078617;28;20056;-70
2022/07/20 01:03:37;;;;;;;10.43;2.50;;;;;;;21.63;61.85;100500.22;5078355;28;20056;-70
2022/07/20 01:06:03;;;;;;;8.73;2.55;;;;;;;21.60;61.64;100494.50;5079673;28;20025;-70
2022/07/20 01:08:29;;;;;;;10.80;2.72;;;;;;;21.62;61.98;100489.31;5078512;28;20033;-70
2022/07/20 01:10:56;;;;;;;9.18;2.35;;;;;;;21.61;61.75;100490.47;5078207;28;20029;-70
2022/07/20 01:13:21;;;;;;;8.73;2.63;;;;;;;21.62;61.92;100483.66;5075305;28;20032;-70
2022/07/20 01:15:47;;;;;;;9.38;2.60;;;;;;;21.62;62.79;100473.16;5069237;28;20366;-70
2022/07/20 01:18:12;;;;;;;6.13;2.22;;;;;;;21.63;62.05;100474.78;5045279;28;20068;-70
2022/07/20 01:20:38;;;;;;;5.70;2.38;;;;;;;21.63;61.15;100482.44;5061813;28;20036;-71
2022/07/20 01:23:03;;;;;;;7.95;2.35;;;;;;;21.62;61.73;100478.81;5061357;28;20433;-70
2022/07/20 01:25:29;;;;;;;7.55;2.33;;;;;;;21.64;60.96;100465.09;5061994;28;20059;-70
2022/07/20 01:27:57;;;;;;;8.88;2.20;;;;;;;21.64;61.21;100467.94;5053912;28;20025;-70
2022/07/20 01:30:22;;;;;;;6.65;2.08;;;;;;;21.60;61.73;100461.41;5060726;28;20474;-70
2022/07/20 01:32:48;;;;;;;9.35;2.33;;;;;;;21.58;61.20;100466.59;5078211;28;20028;-70
2022/07/20 01:35:13;;;;;;;6.55;2.25;;;;;;;21.59;61.52;100476.72;5072639;28;20036;-71
2022/07/20 01:37:39;;;;;;;7.05;2.40;;;;;;;21.58;61.48;100477.91;5090200;28;20032;-70
2022/07/20 01:40:05;;;;;;;6.15;2.20;;;;;;;21.60;61.36;100480.38;5077529;28;20025;-71
2022/07/20 01:42:30;;;;;;;7.85;2.20;;;;;;;21.58;61.48;100472.25;5061437;28;20446;-70
2022/07/20 01:44:56;;;;;;;7.00;2.13;;;;;;;21.57;61.72;100467.78;5061182;28;20028;-70
2022/07/20 01:47:21;;;;;;;6.00;2.08;;;;;;;21.58;61.68;100460.13;5077876;28;20096;-70
2022/07/20 01:49:47;;;;;;;4.85;2.10;;;;;;;21.54;60.93;100457.22;5077865;28;20039;-70
2022/07/20 01:52:12;;;;;;;7.60;2.28;;;;;;;21.51;61.60;100455.16;5078405;28;20499;-70
2022/07/20 01:54:38;;;;;;;8.02;2.20;;;;;;;21.51;61.12;100448.69;5060981;28;20035;-71
2022/07/20 01:57:03;;;;;;;7.55;2.50;;;;;;;21.49;61.89;100443.41;5078577;28;20057;-70
2022/07/20 01:59:29;;;;;;;8.10;2.40;;;;;;;21.46;61.91;100438.47;5057646;28;20028;-70
2022/07/20 02:01:54;;;;;;;7.15;2.30;;;;;;;21.44;61.37;100438.03;5075075;28;20025;-70
2022/07/20 02:04:20;;;;;;;6.22;2.15;;;;;;;21.40;61.90;100452.09;5072566;28;20497;-70
2022/07/20 02:06:45;;;;;;;5.97;1.92;;;;;;;21.39;61.90;100458.09;5060037;28;20032;-70
2022/07/20 02:09:11;;;;;;;10.65;2.40;;;;;;;21.39;62.19;100447.59;5078565;28;20103;-70
2022/07/20 02:11:36;;;;;;;8.20;2.35;;;;;;;21.35;62.20;100437.41;5078498;28;20040;-70
2022/07/20 02:14:02;;;;;;;7.65;2.33;;;;;;;21.35;62.91;100434.56;5060670;28;20441;-71
2022/07/20 02:16:27;;;;;;;6.00;2.53;;;;;;;21.32;62.50;100441.78;5078589;28;20040;-70
2022/07/20 02:18:57;;;;;;;5.57;2.22;;;;;;;21.32;62.46;100443.78;5078451;28;20070;-70
2022/07/20 02:21:23;;;;;;;7.32;2.58;;;;;;;21.32;62.22;100447.44;5077148;28;20036;-71
2022/07/20 02:23:49;;;;;;;6.45;1.98;;;;;;;21.31;62.79;100450.59;5060363;28;20028;-71
2022/07/20 02:26:14;;;;;;;7.55;1.95;;;;;;;21.32;62.77;100463.56;5078333;28;20043;-70
2022/07/20 02:28:40;;;;;;;6.30;2.40;;;;;;;21.31;62.83;100459.06;5073361;28;20020;-70
2022/07/20 02:31:05;;;;;;;6.20;2.20;;;;;;;21.28;62.90;100457.81;5078330;28;20032;-70
2022/07/20 02:33:31;;;;;;;7.90;2.00;;;;;;;21.33;63.03;100445.41;5060523;28;20537;-70
2022/07/20 02:35:56;;;;;;;6.60;2.20;;;;;;;21.30;62.54;100438.50;5072051;28;20412;-70
2022/07/20 02:38:22;;;;;;;6.68;2.22;;;;;;;21.29;63.10;100439.69;5076282;28;20555;-70
2022/07/20 02:40:48;;;;;;;6.85;2.13;;;;;;;21.29;64.06;100453.00;5078056;28;20086;-70
2022/07/20 02:43:13;;;;;;;7.25;2.38;;;;;;;21.29;62.96;100458.66;5076738;28;20055;-71
2022/07/20 02:45:39;;;;;;;6.03;2.30;;;;;;;21.28;63.47;100462.63;5060088;28;20481;-70
2022/07/20 02:48:04;;;;;;;8.35;2.25;;;;;;;21.26;64.43;100460.19;5057501;28;20025;-70
2022/07/20 02:50:36;;;;;;;5.07;1.90;;;;;;;21.26;64.42;100467.84;5043786;28;20024;-70
2022/07/20 02:53:02;;;;;;;7.40;2.43;;;;;;;21.26;64.34;100468.69;5058831;28;20036;-71
2022/07/20 02:55:28;;;;;;;5.78;2.30;;;;;;;21.24;63.80;100473.06;5026451;28;20330;-70
2022/07/20 02:57:53;;;;;;;6.03;2.10;;;;;;;21.23;64.71;100468.56;5075981;28;20128;-70
2022/07/20 03:00:19;;;;;;;7.85;2.20;;;;;;;21.22;64.76;100464.13;5059643;28;20043;-70
2022/07/20 03:02:49;;;;;;;6.25;2.65;;;;;;;21.21;64.70;100463.31;5077485;28;20025;-70
2022/07/20 03:05:14;;;;;;;5.28;2.05;;;;;;;21.18;64.77;100462.03;5060047;28;20033;-70
2022/07/20 03:07:40;;;;;;;4.97;2.30;;;;;;;21.18;64.67;100464.03;5059737;28;20028;-70
2022/07/20 03:10:05;;;;;;;7.55;2.50;;;;;;;21.20;64.56;100454.03;5059814;28;20551;-70
2022/07/20 03:12:31;;;;;;;5.20;2.03;;;;;;;21.17;65.60;100451.09;5109698;28;20024;-70
2022/07/20 03:14:56;;;;;;;7.28;2.17;;;;;;;21.16;65.85;100449.47;5059484;28;20477;-70
2022/07/20 03:17:22;;;;;;;5.22;2.20;;;;;;;21.14;65.83;100457.47;5077237;28;20029;-70
2022/07/20 03:19:48;;;;;;;5.72;1.77;;;;;;;21.12;66.49;100459.88;5076385;28;20028;-70
2022/07/20 03:22:13;;;;;;;4.68;2.42;;;;;;;21.13;66.24;100467.16;5057471;28;20051;-70
2022/07/20 03:24:39;;;;;;;8.27;2.35;;;;;;;21.10;65.91;100463.03;5076299;28;20033;-70
2022/07/20 03:27:04;;;;;;;6.65;2.30;;;;;;;21.09;66.25;100458.59;5039472;28;20462;-70
2022/07/20 03:29:30;;;;;;;5.78;2.08;;;;;;;21.07;65.88;100468.63;5081201;28;20028;-70
2022/07/20 03:31:55;;;;;;;5.57;1.95;;;;;;;21.06;66.18;100467.81;5039690;28;20036;-70
2022/07/20 03:34:21;;;;;;;5.90;2.03;;;;;;;21.03;66.88;100465.69;5058876;28;20033;-70
2022/07/20 03:36:48;;;;;;;7.93;2.20;;;;;;;21.02;67.57;100466.06;5039111;28;20397;-70
2022/07/20 03:39:14;;;;;;;4.93;2.10;;;;;;;21.01;66.35;100479.38;5075248;28;20025;-70
2022/07/20 03:41:39;;;;;;;4.38;2.22;;;;;;;20.96;66.60;100477.63;5055719;28;20032;-70
2022/07/20 03:44:05;;;;;;;6.57;2.30;;;;;;;20.94;67.13;100477.16;5057258;28;20024;-70
2022/07/20 03:46:30;;;;;;;5.32;1.92;;;;;;;20.94;66.89;100479.19;5075577;28;20040;-70
2022/07/20 03:48:56;;;;;;;6.10;2.28;;;;;;;20.92;66.62;100484.38;5076665;28;20150;-70
2022/07/20 03:51:21;;;;;;;5.13;2.20;;;;;;;20.91;66.59;100488.38;5109209;28;20032;-70
2022/07/20 03:53:47;;;;;;;6.03;2.03;;;;;;;20.92;66.61;100496.50;5054103;28;20033;-70
2022/07/20 03:56:12;;;;;;;5.03;2.00;;;;;;;20.86;68.06;100486.63;5075374;28;20078;-70
2022/07/20 03:58:38;;;;;;;6.40;2.15;;;;;;;20.86;68.12;100486.63;5041917;28;20044;-70
2022/07/20 04:01:03;;;;;;;3.58;2.00;;;;;;;20.87;68.08;100495.94;5058945;28;20033;-70
2022/07/20 04:03:29;;;;;;;5.45;1.73;;;;;;;20.81;68.23;100501.06;5041779;28;20025;-70
2022/07/20 04:05:54;;;;;;;4.07;1.80;;;;;;;20.81;68.09;100500.22;5076689;28;20028;-70
2022/07/20 04:08:20;;;;;;;2.88;1.70;;;;;;;20.81;68.15;100505.84;5057696;28;20032;-70
2022/07/20 04:10:45;;;;;;;6.20;2.42;;;;;;;20.84;67.72;100503.16;5075087;28;20033;-70
2022/07/20 04:13:11;;;;;;;3.45;1.83;;;;;;;20.84;67.96;100505.13;5058478;28;20032;-70
2022/07/20 04:15:36;;;;;;;3.95;2.00;;;;;;;20.81;68.69;100500.22;5058617;28;20070;-70
2022/07/20 04:18:02;;;;;;;6.65;2.17;;;;;;;20.82;68.69;100510.34;5058285;28;20036;-70
2022/07/20 04:20:27;;;;;;;6.05;1.90;;;;;;;20.79;69.03;100511.06;5057896;28;20090;-70
2022/07/20 04:22:53;;;;;;;3.97;1.95;;;;;;;20.81;68.94;100506.69;5058192;28;20037;-70
2022/07/20 04:25:19;;;;;;;3.65;1.70;;;;;;;20.81;68.87;100505.84;5042044;28;20086;-70
2022/07/20 04:27:44;;;;;;;3.30;1.73;;;;;;;20.77;68.67;100504.94;5031209;28;20036;-70
2022/07/20 04:30:10;;;;;;;2.97;1.55;;;;;;;20.79;69.24;100509.06;5056302;28;20024;-70
2022/07/20 04:32:36;;;;;;;3.08;1.50;;;;;;;20.82;69.84;100504.69;5058789;28;20037;-70
2022/07/20 04:35:01;;;;;;;2.80;1.48;;;;;;;20.80;69.20;100505.03;5058742;28;20054;-70
2022/07/20 04:37:27;;;;;;;6.00;1.90;;;;;;;20.79;69.22;100511.88;5057702;28;20076;-70
2022/07/20 04:39:52;;;;;;;4.22;1.80;;;;;;;20.78;69.23;100506.59;5050726;28;20389;-70
2022/07/20 04:42:18;;;;;;;3.05;1.58;;;;;;;20.78;68.90;100517.88;5074603;28;20051;-70
2022/07/20 04:44:43;;;;;;;2.13;1.40;;;;;;;20.74;69.21;100512.97;5075581;28;20027;-70
2022/07/20 04:47:09;;;;;;;4.30;1.90;;;;;;;20.74;70.09;100512.97;5075949;28;20044;-70
2022/07/20 04:49:34;;;;;;;2.45;1.70;;;;;;;20.78;69.75;100512.22;5075856;28;20036;-70
2022/07/20 04:52:00;;;;;;;3.58;1.45;;;;;;;20.78;68.85;100510.22;5057212;28;20028;-70
2022/07/20 04:54:25;;;;;;;3.15;1.60;;;;;;;20.77;69.68;100510.59;5057317;28;20032;-70
2022/07/20 04:56:51;;;;;;;3.55;1.60;;;;;;;20.78;69.90;100512.22;5038211;28;20126;-70
2022/07/20 04:59:16;;;;;;;5.90;1.70;;;;;;;20.80;69.38;100499.41;5056155;28;20066;-70
2022/07/20 05:01:42;;;;;;;4.63;1.27;;;;;;;20.74;69.46;100504.50;5054710;28;20033;-70
2022/07/20 05:04:07;;;;;;;4.75;1.63;;;;;;;20.72;69.54;100506.84;5072599;28;20085;-70
2022/07/20 05:06:33;;;;;;;2.95;1.42;;;;;;;20.76;69.81;100515.44;5075858;28;20021;-70
2022/07/20 05:08:58;;;;;;;3.08;1.67;;;;;;;20.70;70.06;100509.22;5075314;28;20025;-70
2022/07/20 05:11:26;;;;;;;4.32;1.40;;;;;;;20.69;69.63;100507.56;5074588;28;20036;-70
2022/07/20 05:13:52;;;;;;;2.80;1.33;;;;;;;20.70;69.75;100508.41;5075467;28;20033;-70
2022/07/20 05:16:18;;;;;;;3.03;1.70;;;;;;;20.68;70.01;100514.41;5057844;28;20553;-70
2022/07/20 05:18:43;;;;;;;4.03;1.70;;;;;;;20.64;69.91;100515.50;5075303;28;20039;-70
2022/07/20 05:21:09;;;;;;;2.78;1.40;;;;;;;20.61;70.27;100525.50;5057434;28;20028;-70
2022/07/20 05:23:34;;;;;;;3.00;1.55;;;;;;;20.59;70.40;100525.06;5075452;28;20029;-70
2022/07/20 05:26:00;;;;;;;3.28;1.70;;;;;;;20.63;70.20;100523.13;5057385;28;20586;-70
2022/07/20 05:28:25;;;;;;;3.97;1.50;;;;;;;20.59;69.80;100530.69;5054340;28;20497;-70
2022/07/20 05:30:51;;;;;;;4.28;1.42;;;;;;;20.59;70.58;100538.31;5057898;28;20044;-70
2022/07/20 05:33:16;;;;;;;3.88;1.58;;;;;;;20.57;70.77;100543.53;5072696;28;20032;-70
2022/07/20 05:35:42;;;;;;;3.15;1.73;;;;;;;20.56;71.26;100539.88;5053943;28;20036;-70
2022/07/20 05:38:07;;;;;;;3.92;1.50;;;;;;;20.53;70.72;100534.94;5073892;28;20036;-70
2022/07/20 05:40:33;;;;;;;3.60;2.03;;;;;;;20.53;71.68;100537.75;5057623;28;20025;-70
2022/07/20 05:42:58;;;;;;;4.85;1.58;;;;;;;20.55;71.06;100537.41;5060818;28;20028;-70
2022/07/20 05:45:24;;;;;;;3.80;1.70;;;;;;;20.52;71.26;100538.94;5061182;28;20029;-70
2022/07/20 05:47:49;;;;;;;2.75;1.60;;;;;;;20.55;71.08;100538.22;5077699;28;20645;-71
2022/07/20 05:50:15;;;;;;;3.97;2.00;;;;;;;20.54;72.25;100539.44;5061177;28;20024;-70
2022/07/20 05:52:40;;;;;;;4.50;1.70;;;;;;;20.58;71.79;100542.34;5077089;28;20029;-70
2022/07/20 05:55:07;;;;;;;6.20;1.98;;;;;;;20.58;71.46;100543.16;5077565;28;20044;-70
2022/07/20 05:57:33;;;;;;;3.25;1.80;;;;;;;20.61;72.72;100550.06;5040941;28;20076;-70
2022/07/20 05:59:58;;;;;;;4.43;1.50;;;;;;;20.62;71.85;100546.91;5075082;28;20103;-70
2022/07/20 06:02:24;;;;;;;4.43;1.88;;;;;;;20.66;71.90;100552.63;5077019;28;20430;-70
2022/07/20 06:04:49;;;;;;;3.53;2.00;;;;;;;20.67;72.25;100554.25;5078897;28;20052;-70
2022/07/20 06:07:15;;;;;;;4.80;2.33;;;;;;;20.69;72.64;100560.38;5060438;28;20032;-70
2022/07/20 06:09:40;;;;;;;4.32;2.38;;;;;;;20.71;72.50;100555.19;5060687;28;20107;-70
2022/07/20 06:12:06;;;;;;;3.88;2.28;;;;;;;20.75;72.64;100573.88;5077491;28;20035;-70
2022/07/20 06:14:32;;;;;;;6.03;2.63;;;;;;;20.79;73.12;100576.78;5027961;28;20534;-71
2022/07/20 06:16:57;;;;;;;7.05;2.60;;;;;;;20.84;72.80;100579.34;5040714;28;20033;-70
2022/07/20 06:19:23;;;;;;;6.07;2.67;;;;;;;20.87;72.96;100578.63;5072448;28;20039;-70
2022/07/20 06:21:48;;;;;;;6.55;2.70;;;;;;;20.92;72.54;100584.00;5077221;28;20028;-71
2022/07/20 06:24:14;;;;;;;5.35;2.65;;;;;;;20.93;73.58;100579.19;5077902;28;20031;-71
2022/07/20 06:26:40;;;;;;;6.15;3.00;;;;;;;20.98;73.71;100581.72;5057430;28;20496;-71
2022/07/20 06:29:05;;;;;;;5.57;2.75;;;;;;;21.02;72.89;100582.63;5079763;28;20025;-71
2022/07/20 06:31:31;;;;;;;5.03;3.00;;;;;;;21.06;72.73;100591.19;5060581;28;20033;-66
2022/07/20 06:33:56;;;;;;;3.42;2.45;;;;;;;21.15;72.57;100595.50;5078202;28;20040;-65
2022/07/20 06:36:22;;;;;;;7.15;3.13;;;;;;;21.26;73.78;100589.31;5077382;28;20025;-66
2022/07/20 06:38:47;;;;;;;8.10;3.00;;;;;;;21.33;73.91;100581.81;5040290;28;20455;-65
2022/07/20 06:41:13;;;;;;;6.75;3.08;;;;;;;21.42;74.75;100587.28;5058701;28;20512;-66
2022/07/20 06:43:38;;;;;;;6.43;2.70;;;;;;;21.54;72.76;100590.03;5060124;28;20028;-66
2022/07/20 06:46:04;;;;;;;6.00;2.97;;;;;;;21.69;73.46;100590.38;5059950;28;20025;-66
2022/07/20 06:48:29;;;;;;;7.18;3.22;;;;;;;21.83;76.21;100594.34;5043446;28;20033;-66
2022/07/20 06:50:55;;;;;;;7.25;3.60;;;;;;;21.99;75.54;100593.50;5059859;28;20389;-65
2022/07/20 06:53:20;;;;;;;6.85;3.17;;;;;;;22.14;76.69;100586.13;5074291;28;20033;-66
2022/07/20 06:55:46;;;;;;;4.55;2.40;;;;;;;22.27;73.50;100591.31;5043434;28;20041;-66
2022/07/20 06:58:11;;;;;;;5.60;2.97;;;;;;;;;;5074871;28;20102;-66
2022/07/20 07:00:37;;;;;;;8.18;2.38;;;;;;;22.53;73.93;100593.44;5075306;28;20074;-66
2022/07/20 07:03:02;;;;;;;7.18;2.63;;;;;;;22.66;73.67;100593.31;5076800;28;20060;-66
2022/07/20 07:05:28;;;;;;;5.72;2.35;;;;;;;22.76;72.68;100589.84;5076148;28;20074;-66
2022/07/20 07:07:53;;;;;;;5.70;2.65;;;;;;;22.86;72.48;100591.25;5059464;28;20032;-66
2022/07/20 07:10:19;;;;;;;5.25;2.20;;;;;;;22.96;71.72;100585.84;5059569;28;20388;-66
2022/07/20 07:12:44;;;;;;;7.38;2.97;;;;;;;23.08;71.33;100590.50;5076501;28;20632;-66
2022/07/20 07:15:10;;;;;;;6.22;2.65;;;;;;;23.17;70.93;100591.03;5075922;28;20037;-66
2022/07/20 07:17:35;;;;;;;6.25;2.20;;;;;;;23.29;69.92;100598.56;5073983;28;20041;-66
2022/07/20 07:20:01;;;;;;;7.25;2.83;;;;;;;23.37;70.54;100600.31;5043083;28;20453;-66
2022/07/20 07:22:26;;;;;;;6.15;2.20;;;;;;;23.47;70.08;100604.50;5076957;28;20032;-66
2022/07/20 07:24:53;;;;;;;5.82;2.55;;;;;;;23.57;68.24;100608.72;5059516;28;20032;-66
2022/07/20 07:27:18;;;;;;;7.68;2.33;;;;;;;23.65;67.90;100604.78;5052612;28;20037;-66
2022/07/20 07:29:44;;;;;;;5.32;2.80;;;;;;;23.70;69.62;100612.16;5059404;28;20051;-66
2022/07/20 07:32:09;;;;;;;5.07;2.65;;;;;;;23.77;69.26;100610.28;5092724;28;20070;-66
2022/07/20 07:34:35;;;;;;;5.57;3.08;;;;;;;23.85;71.11;100611.22;5059350;28;20040;-66
2022/07/20 07:37:00;;;;;;;6.55;3.42;;;;;;;23.99;69.07;100608.59;5050419;28;20035;-66
2022/07/20 07:39:26;;;;;;;7.25;4.10;;;;;;;24.18;67.70;100612.47;5058693;28;20512;-66
2022/07/20 07:41:51;;;;;;;4.60;3.30;;;;;;;24.40;66.42;100622.09;5075480;28;20051;-66
2022/07/20 07:44:17;;;;;;;6.22;3.83;;;;;;;24.59;67.48;100619.13;5058840;28;20024;-66
2022/07/20 07:46:42;;;;;;;7.53;3.80;;;;;;;24.80;65.15;100624.25;5059230;28;20024;-66
2022/07/20 07:49:07;;;;;;;5.38;3.50;;;;;;;24.94;64.76;100629.28;5066458;28;20043;-66
2022/07/20 07:51:33;;;;;;;7.82;4.43;;;;;;;25.08;64.29;100632.25;5075584;28;20024;-66
2022/07/20 07:53:58;;;;;;;7.93;4.00;;;;;;;25.18;64.07;100631.59;5074890;28;20089;-66
2022/07/20 07:56:24;;;;;;;9.40;4.43;;;;;;;25.27;64.62;100630.44;5058833;28;20032;-66
2022/07/20 07:58:49;;;;;;;6.65;4.53;;;;;;;25.33;64.32;100628.88;5041663;28;20048;-66
2022/07/20 08:01:15;;;;;;;9.15;4.22;;;;;;;25.42;65.38;100635.03;5058759;28;20099;-66
2022/07/20 08:03:40;;;;;;;5.47;3.70;;;;;;;25.53;64.85;100627.44;5074858;28;20073;-66
2022/07/20 08:06:06;;;;;;;7.00;3.55;;;;;;;25.65;65.00;100626.28;5071870;28;20033;-66
2022/07/20 08:08:31;;;;;;;8.25;3.35;;;;;;;25.76;63.98;100634.91;5056344;28;20033;-66
2022/07/20 08:10:57;;;;;;;8.60;3.30;;;;;;;25.87;62.88;100638.69;5066239;28;20028;-66
2022/07/20 08:13:23;;;;;;;8.30;3.30;;;;;;;25.98;62.43;100641.59;5074096;28;20117;-66
2022/07/20 08:15:48;;;;;;;5.50;3.08;;;;;;;25.99;62.35;100635.53;5041812;28;20042;-66
2022/07/20 08:18:14;;;;;;;8.50;2.70;;;;;;;26.01;62.36;100635.94;5058402;28;20037;-66
2022/07/20 08:20:39;;;;;;;6.18;2.67;;;;;;;26.08;62.10;100646.56;5058682;28;20028;-66
2022/07/20 08:23:05;;;;;;;5.00;2.53;;;;;;;26.09;62.33;100648.19;5058150;28;20033;-66
2022/07/20 08:25:31;;;;;;;7.22;2.30;;;;;;;26.11;61.74;100656.34;5057421;28;20035;-66
2022/07/20 08:28:10;;;;;;;7.13;2.47;;;;;;;26.12;61.56;100650.22;5053302;28;20028;-66
2022/07/20 08:30:36;;;;;;;4.28;2.00;;;;;;;26.16;61.49;100644.56;5057342;28;20370;-66
2022/07/20 08:33:02;;;;;;;6.80;2.45;;;;;;;26.15;62.11;100660.00;5074752;28;20060;-66
2022/07/20 08:35:28;;;;;;;6.07;2.30;;;;;;;26.08;61.84;100647.38;5064552;28;20024;-66
2022/07/20 08:37:54;;;;;;;4.93;1.95;;;;;;;26.14;61.84;100655.53;5074755;28;20035;-66
2022/07/20 08:40:19;;;;;;;5.28;1.92;;;;;;;26.14;61.50;100655.53;5074642;28;20024;-66
2022/07/20 08:42:45;;;;;;;5.70;2.20;;;;;;;26.17;61.34;100661.25;5041482;28;20033;-67
2022/07/20 08:45:10;;;;;;;6.90;2.10;;;;;;;26.19;61.48;100660.88;5091409;28;20032;-65
2022/07/20 08:47:37;;;;;;;5.55;1.90;;;;;;;26.21;61.02;100661.25;5058189;28;20068;-66
2022/07/20 08:50:03;;;;;;;5.28;2.08;;;;;;;26.25;61.11;100653.56;5057505;28;20043;-66
2022/07/20 08:52:28;;;;;;;4.50;1.92;;;;;;;26.28;60.96;100655.63;5073902;28;20025;-66
2022/07/20 08:54:54;;;;;;;4.43;1.95;;;;;;;26.31;60.62;100649.13;5058168;28;20064;-66
2022/07/20 08:57:19;;;;;;;6.30;2.00;;;;;;;26.30;60.52;100656.03;5074403;28;20493;-66
2022/07/20 08:59:45;;;;;;;5.38;1.90;;;;;;;26.35;59.77;100644.25;5057786;28;20481;-66
2022/07/20 09:02:11;;;;;;;6.68;2.20;;;;;;;26.39;59.15;100650.78;5057763;28;20039;-66
2022/07/20 09:04:53;;;;;;;4.65;2.10;;;;;;;26.47;61.58;100661.00;5057988;28;20147;-66
2022/07/20 09:07:36;;;;;;;6.53;2.00;;;;;;;26.57;61.17;100662.28;5057668;28;20062;-66
2022/07/20 09:10:02;;;;;;;6.82;1.90;;;;;;;26.74;59.64;100666.44;5072863;28;20028;-66
2022/07/20 09:12:27;;;;;;;5.68;1.88;;;;;;;26.91;58.74;100660.00;5057831;28;20119;-66
2022/07/20 09:14:52;;;;;;;5.18;1.80;;;;;;;27.06;58.50;100660.84;5074943;28;20094;-66
2022/07/20 09:17:22;;;;;;;5.60;1.80;;;;;;;27.24;58.04;100651.53;5050891;28;20037;-66
2022/07/20 09:20:17;;;;;;;6.00;2.30;;;;;;;27.50;58.50;100661.78;5078611;28;20454;-66
2022/07/20 09:22:43;;;;;;;3.22;1.75;;;;;;;27.70;57.03;100670.72;5054229;28;20036;-66
2022/07/20 09:25:15;;;;;;;5.40;1.88;;;;;;;27.83;55.98;100667.09;5061853;28;20437;-66
2022/07/20 09:27:41;;;;;;;5.27;1.83;;;;;;;27.96;55.20;100678.06;5045171;28;20369;-65
2022/07/20 09:30:10;;;;;;;4.93;1.80;;;;;;;28.04;54.35;100665.44;5056021;28;20035;-66
2022/07/20 09:32:53;;;;;;;6.43;1.95;;;;;;;28.10;54.74;100663.78;5061884;28;20074;-66
2022/07/20 09:35:27;;;;;;;4.43;1.65;;;;;;;28.09;54.68;100661.34;5077845;28;20664;-66
2022/07/20 09:37:54;;;;;;;5.30;1.50;;;;;;;28.09;53.40;100664.22;5078920;28;20028;-66
2022/07/20 09:40:20;;;;;;;4.32;1.90;;;;;;;28.09;54.07;100665.03;5058138;28;20029;-66
2022/07/20 09:42:46;;;;;;;4.45;1.70;;;;;;;28.10;52.74;100660.94;5075925;28;20021;-67
2022/07/20 09:45:26;;;;;;;4.10;1.63;;;;;;;28.14;52.75;100661.75;5060444;28;20477;-67
2022/07/20 09:48:11;;;;;;;6.05;1.60;;;;;;;28.32;50.13;100660.88;5072899;28;20032;-66
2022/07/20 09:50:43;;;;;;;4.30;1.60;;;;;;;28.42;51.26;100652.31;5060887;28;20068;-67
2022/07/20 09:53:09;;;;;;;5.00;1.73;;;;;;;28.61;51.67;100651.03;5050294;28;20024;-66
2022/07/20 09:55:35;;;;;;;4.90;1.70;;;;;;;28.79;49.69;100635.84;5044461;28;20481;-66
2022/07/20 09:58:00;;;;;;;3.53;1.60;;;;;;;28.96;49.40;100632.88;5077139;28;20054;-66
2022/07/20 10:00:26;;;;;;;3.20;1.70;;;;;;;29.17;48.36;100640.53;5042001;28;20048;-66
2022/07/20 10:02:54;;;;;;;5.00;1.55;;;;;;;29.42;48.72;100641.56;5044470;28;20036;-66
2022/07/20 10:05:22;;;;;;;5.93;1.58;;;;;;;29.59;48.31;100635.72;5077692;28;20048;-66
2022/07/20 10:07:47;;;;;;;3.10;1.60;;;;;;;29.83;47.37;100650.25;5077144;28;20086;-66
2022/07/20 10:10:13;;;;;;;9.55;1.52;;;;;;;30.06;47.34;100661.06;5077317;28;20544;-66
2022/07/20 10:12:38;;;;;;;4.13;1.50;;;;;;;30.21;46.75;100656.00;5057589;28;20116;-66
2022/07/20 10:15:11;;;;;;;4.45;1.30;;;;;;;30.36;46.98;100637.44;5058263;28;20048;-66
2022/07/20 10:17:38;;;;;;;5.43;1.50;;;;;;;30.52;48.03;100638.91;5059913;28;20533;-66
2022/07/20 10:20:06;;;;;;;4.80;1.38;;;;;;;30.66;46.57;100644.47;5074398;28;20058;-66
2022/07/20 10:22:32;;;;;;;3.45;1.40;;;;;;;30.79;46.49;100642.66;5043825;28;20094;-66
2022/07/20 10:25:15;;;;;;;3.63;1.42;;;;;;;30.90;46.02;100636.81;5077238;28;20032;-67
2022/07/20 10:27:41;;;;;;;6.15;1.40;;;;;;;31.06;45.61;100636.94;5059736;28;20436;-67
2022/07/20 10:30:17;;;;;;;5.63;1.10;;;;;;;31.24;45.23;100636.69;5076463;28;20033;-67
2022/07/20 10:32:56;;;;;;;4.45;1.20;;;;;;;31.42;45.02;100638.50;5093889;28;20036;-67
2022/07/20 10:35:28;;;;;;;3.83;1.10;;;;;;;31.64;43.89;100628.28;5075882;28;20059;-67
2022/07/20 10:37:55;;;;;;;3.00;0.73;;;;;;;31.85;44.19;100632.03;5059022;28;20033;-67
2022/07/20 10:40:24;;;;;;;3.25;0.70;;;;;;;32.05;42.27;100624.28;5056968;28;20102;-67
2022/07/20 10:43:12;;;;;;;3.42;0.90;;;;;;;32.22;41.04;100633.81;5055256;28;20067;-67
2022/07/20 10:45:37;;;;;;;3.60;0.80;;;;;;;32.39;41.30;100637.56;5078214;28;20058;-67
2022/07/20 10:48:12;;;;;;;2.70;0.90;;;;;;;32.40;42.31;100639.19;5057046;28;20448;-67
2022/07/20 10:50:39;;;;;;;3.40;1.00;;;;;;;32.26;43.11;100649.75;5071139;28;20036;-67
2022/07/20 10:53:10;;;;;;;2.75;0.98;;;;;;;32.08;43.54;100640.66;5076294;28;20108;-67
2022/07/20 10:55:36;;;;;;;3.67;1.15;;;;;;;31.94;43.72;100643.78;5059644;28;20029;-67
2022/07/20 10:58:05;;;;;;;4.85;1.13;;;;;;;31.70;43.68;100638.00;5077757;28;20048;-68
2022/07/20 11:00:34;;;;;;;3.47;0.93;;;;;;;31.48;43.50;100636.75;5060525;28;20040;-68
2022/07/20 11:03:00;;;;;;;3.22;0.93;;;;;;;31.29;44.27;100641.16;5060208;28;20080;-68
2022/07/20 11:05:25;;;;;;;2.72;0.93;;;;;;;31.20;44.23;100630.19;5076500;28;20085;-67
2022/07/20 11:07:51;;;;;;;4.30;0.98;;;;;;;31.10;44.46;100634.06;5075279;28;20485;-68
2022/07/20 11:10:24;;;;;;;4.25;0.98;;;;;;;31.15;44.33;100630.69;5059682;28;20037;-68
2022/07/20 11:12:58;;;;;;;2.65;1.13;;;;;;;31.15;42.02;100633.56;5076234;28;20024;-67
2022/07/20 11:15:37;;;;;;;2.78;0.80;;;;;;;31.22;42.04;100635.50;5057333;28;20116;-67
2022/07/20 11:18:04;;;;;;;3.50;0.90;;;;;;;31.35;41.43;100640.22;5061290;28;20067;-67
2022/07/20 11:20:29;;;;;;;2.00;0.73;;;;;;;31.47;39.95;100630.22;5059557;28;20035;-68
2022/07/20 11:22:56;;;;;;;2.50;0.80;;;;;;;31.57;39.35;100632.09;5040068;28;20044;-67
2022/07/20 11:25:24;;;;;;;2.38;0.70;;;;;;;31.77;39.83;100634.22;5042431;28;20025;-67